KEOE

Newberry County Airport

Newberry, South Carolina, USA
METAR KEOE 200655Z AUTO 12005KT 7SM SCT070 13/13 A3042 RMK AO2
Observed Flight Rules
Feb-20 @ 06:55 UTC (27 minutes ago) Visual Flight Rules
Wind Visibility Clouds
120° at 5 knots 7 miles
  • Scattered at 7,000' AGL
Temperatures Readings
Current 13°C / 55°F
Dewpoint 13°C / 55°F
Humidity 100%
Altimeter 30.42" Hg
Pressure 1030 hPa
Elevation 174
METAR KEOE 200655Z AUTO 12005KT 7SM SCT070 13/13 A3042 RMK AO2
Observed Flight Rules
Feb-20 @ 06:55 UTC
(27 minutes ago)
VFR
Wind Visibility
120° at 5 knots 7 miles
Clouds
  • Scattered at 7,000' AGL
Temperature Dewpoint
13°C / 55°F 13°C / 55°F
Humidity Altimeter Pressure
100% 30.42" Hg 1030 hPa